Time;durP1;ratioP1;P1;durP2;ratioP2;P2;SDS_P1;SDS_P2;PMS_P1;PMS_P2;Temp;Humidity;BMP_temperature;BMP_pressure;BME280_temperature;BME280_humidity;BME280_pressure;Samples;Min_cycle;Max_cycle;Signal;HPM_P1;HPM_P2
2023/07/13 00:01:15;;;;;;;1999.90;999.90;;;;;;;18.58;100.00;93477.16;5087363;28;20175;-58
2023/07/13 00:03:41;;;;;;;1999.90;999.90;;;;;;;18.57;100.00;93472.88;5086981;28;20173;-57
2023/07/13 00:06:07;;;;;;;1999.90;999.90;;;;;;;18.61;100.00;93465.13;5086803;28;20177;-58
2023/07/13 00:08:33;;;;;;;1999.90;999.90;;;;;;;18.67;100.00;93455.56;5086628;28;20177;-57
2023/07/13 00:11:03;;;;;;;1999.90;999.90;;;;;;;18.70;100.00;93443.50;5086630;28;20176;-56
2023/07/13 00:13:29;;;;;;;1999.90;999.90;;;;;;;18.74;100.00;93441.22;5086950;28;20173;-57
2023/07/13 00:15:56;;;;;;;1999.90;999.90;;;;;;;18.75;100.00;93439.19;5086757;28;20201;-54
2023/07/13 00:18:22;;;;;;;1999.90;999.90;;;;;;;18.75;100.00;93428.91;5086467;28;20200;-56
2023/07/13 00:20:47;;;;;;;1999.90;999.90;;;;;;;18.83;100.00;93429.16;5086873;28;20173;-56
2023/07/13 00:23:17;;;;;;;1999.90;999.90;;;;;;;18.84;100.00;93436.19;5086959;28;20181;-59
2023/07/13 00:25:42;;;;;;;1999.90;999.90;;;;;;;18.80;100.00;93449.53;5085511;28;20199;-58
2023/07/13 00:28:07;;;;;;;1999.90;999.90;;;;;;;18.82;100.00;93441.47;5086343;28;20177;-59
2023/07/13 00:30:33;;;;;;;1999.90;999.90;;;;;;;18.80;100.00;93446.75;5086333;28;20175;-58
2023/07/13 00:33:01;;;;;;;1999.90;999.90;;;;;;;18.78;100.00;93450.03;5086516;28;20173;-58
2023/07/13 00:35:27;;;;;;;1999.90;999.90;;;;;;;18.80;100.00;93468.88;5086218;28;20173;-58
2023/07/13 00:37:52;;;;;;;1999.90;999.90;;;;;;;18.80;100.00;93468.88;5086053;28;20173;-59
2023/07/13 00:40:18;;;;;;;1999.90;999.90;;;;;;;18.85;100.00;93468.88;5086157;28;20177;-58
2023/07/13 00:42:43;;;;;;;1999.90;999.90;;;;;;;18.81;100.00;93473.16;5086648;28;20224;-58
2023/07/13 00:45:11;;;;;;;1999.90;999.90;;;;;;;18.83;100.00;93478.97;5086217;28;20216;-58
2023/07/13 00:47:37;;;;;;;1999.90;999.90;;;;;;;18.77;100.00;93480.94;5086495;28;20244;-57
2023/07/13 00:50:06;;;;;;;1999.90;999.90;;;;;;;18.79;100.00;93483.94;5086439;28;20178;-57
2023/07/13 00:52:32;;;;;;;1999.90;999.90;;;;;;;18.77;100.00;93492.78;5085731;28;20224;-59
2023/07/13 00:54:58;;;;;;;1999.90;999.90;;;;;;;18.73;100.00;93491.50;5086523;28;20173;-58
2023/07/13 00:57:23;;;;;;;1999.90;999.90;;;;;;;18.74;100.00;93493.00;5085716;28;20200;-58
2023/07/13 00:59:53;;;;;;;1999.90;999.90;;;;;;;18.76;100.00;93496.03;5085888;28;20306;-57
2023/07/13 01:02:21;;;;;;;1999.90;999.90;;;;;;;18.78;100.00;93499.06;5086160;28;20232;-57
2023/07/13 01:04:47;;;;;;;1999.90;999.90;;;;;;;18.84;100.00;93497.06;5085707;28;20177;-58
2023/07/13 01:07:12;;;;;;;1999.90;999.90;;;;;;;18.82;100.00;93482.94;5086089;28;20173;-58
2023/07/13 01:09:38;;;;;;;1999.90;999.90;;;;;;;18.80;100.00;93485.50;5085589;28;20180;-57
2023/07/13 01:12:03;;;;;;;1999.90;999.90;;;;;;;18.77;100.00;93476.19;5085626;28;20175;-58
2023/07/13 01:14:29;;;;;;;1999.90;999.90;;;;;;;18.78;100.00;93471.38;5085391;28;20252;-58
2023/07/13 01:16:55;;;;;;;1999.90;999.90;;;;;;;18.78;100.00;93465.84;5085242;28;20197;-58
2023/07/13 01:19:56;;;;;;;1999.90;999.90;;;;;;;18.75;100.00;93472.38;5085799;28;20177;-57
2023/07/13 01:22:25;;;;;;;1999.90;999.90;;;;;;;18.72;100.00;93473.41;5041720;28;20185;-58
2023/07/13 01:24:51;;;;;;;1999.90;999.90;;;;;;;18.68;100.00;93472.88;5085164;28;20173;-59
2023/07/13 01:27:23;;;;;;;1999.90;999.90;;;;;;;18.67;100.00;93457.56;5085135;28;20176;-58
2023/07/13 01:29:49;;;;;;;1999.90;999.90;;;;;;;18.66;100.00;93458.81;5084904;28;20192;-58
2023/07/13 01:32:21;;;;;;;1999.90;999.90;;;;;;;18.63;100.00;93448.75;5085017;28;20173;-58
2023/07/13 01:34:47;;;;;;;1999.90;999.90;;;;;;;18.64;100.00;93444.72;5085514;28;20165;-56
2023/07/13 01:37:12;;;;;;;1999.90;999.90;;;;;;;18.63;100.00;93446.00;5084899;28;20204;-56
2023/07/13 01:39:38;;;;;;;1999.90;999.90;;;;;;;18.62;100.00;93459.06;5085059;28;20208;-57
2023/07/13 01:42:03;;;;;;;1999.90;999.90;;;;;;;18.59;100.00;93442.72;5084896;28;20165;-56
2023/07/13 01:44:29;;;;;;;1999.90;999.90;;;;;;;18.61;100.00;93429.16;5085399;28;20177;-56
2023/07/13 01:46:54;;;;;;;1999.90;999.90;;;;;;;18.59;100.00;93431.66;5084850;28;20169;-55
2023/07/13 01:49:20;;;;;;;1999.90;999.90;;;;;;;18.61;100.00;93445.75;5084805;28;20204;-56
2023/07/13 01:51:45;;;;;;;1999.90;999.90;;;;;;;18.62;100.00;93444.50;5084431;28;20213;-58
2023/07/13 01:54:10;;;;;;;1999.90;999.90;;;;;;;18.60;100.00;93449.75;5085191;28;20173;-58
2023/07/13 01:56:36;;;;;;;1999.90;999.90;;;;;;;18.61;100.00;93446.50;5084991;28;20209;-58
2023/07/13 01:59:01;;;;;;;1999.90;999.90;;;;;;;18.66;100.00;93447.75;5084611;28;20219;-57
2023/07/13 02:01:26;;;;;;;1999.90;999.90;;;;;;;18.72;100.00;93454.06;5084768;28;20395;-58
2023/07/13 02:03:52;;;;;;;1999.90;999.90;;;;;;;18.69;100.00;93452.28;5084945;28;20181;-59
2023/07/13 02:06:17;;;;;;;1999.90;999.90;;;;;;;18.68;100.00;93468.13;5084925;28;20181;-58
2023/07/13 02:08:42;;;;;;;1999.90;999.90;;;;;;;18.68;100.00;93461.81;5084344;28;20180;-58
2023/07/13 02:11:08;;;;;;;1999.90;999.90;;;;;;;18.68;100.00;93473.66;5084779;28;20173;-59
2023/07/13 02:13:34;;;;;;;1999.90;999.90;;;;;;;18.72;100.00;93462.34;5084268;28;20177;-58
2023/07/13 02:16:00;;;;;;;1999.90;999.90;;;;;;;18.69;100.00;93463.34;5084738;28;20250;-58
2023/07/13 02:18:25;;;;;;;1999.90;999.90;;;;;;;18.64;100.00;93462.09;5084302;28;20174;-58
2023/07/13 02:20:51;;;;;;;1999.90;999.90;;;;;;;18.64;100.00;93466.84;5084181;28;20195;-58
2023/07/13 02:23:16;;;;;;;1999.90;999.90;;;;;;;18.64;100.00;93456.56;5084385;28;20173;-59
2023/07/13 02:25:41;;;;;;;1999.90;999.90;;;;;;;18.64;100.00;93461.31;5084157;28;20205;-57
2023/07/13 02:28:07;;;;;;;1999.90;999.90;;;;;;;18.62;100.00;93463.84;5084880;28;20177;-57
2023/07/13 02:30:33;;;;;;;1999.90;999.90;;;;;;;18.65;100.00;93446.25;5084064;28;20222;-59
2023/07/13 02:32:59;;;;;;;1999.90;999.90;;;;;;;18.71;100.00;93433.16;5084045;28;20177;-59
2023/07/13 02:35:24;;;;;;;1999.90;999.90;;;;;;;18.74;100.00;93426.63;5083859;28;20264;-59
2023/07/13 02:37:50;;;;;;;1999.90;999.90;;;;;;;18.76;100.00;93418.59;5084095;28;20205;-59
2023/07/13 02:40:15;;;;;;;1999.90;999.90;;;;;;;18.79;100.00;93412.03;5083944;28;20173;-59
2023/07/13 02:42:41;;;;;;;1999.90;999.90;;;;;;;18.82;100.00;93411.03;5084232;28;20169;-58
2023/07/13 02:45:08;;;;;;;1999.90;999.90;;;;;;;18.82;100.00;93413.81;5083891;28;20169;-58
2023/07/13 02:47:34;;;;;;;1999.90;999.90;;;;;;;18.82;100.00;93406.25;5083585;28;20180;-58
2023/07/13 02:49:59;;;;;;;1999.90;999.90;;;;;;;18.81;100.00;93413.06;5083872;28;20173;-58
2023/07/13 02:52:25;;;;;;;1999.90;999.90;;;;;;;18.83;100.00;93412.56;5083557;28;20228;-58
2023/07/13 02:54:51;;;;;;;1999.90;999.90;;;;;;;18.80;100.00;93402.50;5084290;28;20222;-60
2023/07/13 02:57:16;;;;;;;1999.90;999.90;;;;;;;18.78;100.00;93385.66;5083688;28;20193;-61
2023/07/13 02:59:41;;;;;;;1999.90;999.90;;;;;;;18.73;100.00;93376.09;5083799;28;20211;-60
2023/07/13 03:02:07;;;;;;;1999.90;999.90;;;;;;;18.75;100.00;93372.81;5083853;28;20166;-60
2023/07/13 03:04:32;;;;;;;1999.90;999.90;;;;;;;18.71;100.00;93350.19;5083313;28;20186;-59
2023/07/13 03:06:58;;;;;;;1999.90;999.90;;;;;;;18.72;100.00;93346.19;5083702;28;20169;-60
2023/07/13 03:09:24;;;;;;;1999.90;999.90;;;;;;;18.68;100.00;93329.09;5083904;28;20173;-59
2023/07/13 03:11:53;;;;;;;1999.90;999.90;;;;;;;18.66;100.00;93320.56;5083638;28;20202;-59
2023/07/13 03:14:18;;;;;;;1999.90;999.90;;;;;;;18.50;100.00;93318.56;5083396;28;20207;-60
2023/07/13 03:16:44;;;;;;;1999.90;999.90;;;;;;;18.37;100.00;93316.31;5083470;28;20205;-61
2023/07/13 03:19:09;;;;;;;1999.90;999.90;;;;;;;18.27;100.00;93317.81;5084055;28;20197;-61
2023/07/13 03:21:35;;;;;;;1999.90;999.90;;;;;;;18.19;100.00;93318.81;5083720;28;20181;-61
2023/07/13 03:24:00;;;;;;;1999.90;999.90;;;;;;;18.15;100.00;93326.59;5083599;28;20180;-61
2023/07/13 03:26:25;;;;;;;1999.90;999.90;;;;;;;18.06;100.00;93335.13;5083530;28;20213;-60
2023/07/13 03:28:51;;;;;;;1999.90;999.90;;;;;;;18.06;100.00;93330.34;5083405;28;20177;-60
2023/07/13 03:31:19;;;;;;;1999.90;999.90;;;;;;;18.05;100.00;93325.31;5084050;28;20174;-60
2023/07/13 03:33:45;;;;;;;1999.90;999.90;;;;;;;17.94;100.00;93322.56;5083396;28;20173;-60
2023/07/13 03:36:18;;;;;;;1999.90;999.90;;;;;;;17.83;100.00;93323.31;5083371;28;20197;-60
2023/07/13 03:38:55;;;;;;;1999.90;999.90;;;;;;;17.78;100.00;93334.34;5083449;28;20173;-60
2023/07/13 03:41:22;;;;;;;1999.90;999.90;;;;;;;17.72;100.00;93350.91;5083844;28;20160;-61
2023/07/13 03:43:48;;;;;;;1999.90;999.90;;;;;;;17.70;100.00;93358.91;5083333;28;20193;-60
2023/07/13 03:46:14;;;;;;;1999.90;999.90;;;;;;;17.66;100.00;93349.38;5083432;28;20173;-60
2023/07/13 03:48:42;;;;;;;1999.90;999.90;;;;;;;17.58;100.00;93348.34;5083375;28;20180;-60
2023/07/13 03:51:08;;;;;;;1999.90;999.90;;;;;;;17.60;100.00;93349.38;5083281;28;20191;-61
2023/07/13 03:53:34;;;;;;;1999.90;999.90;;;;;;;17.61;100.00;93337.06;5082800;28;20248;-61
2023/07/13 03:55:59;;;;;;;1999.90;999.90;;;;;;;17.65;100.00;93339.56;5082849;28;20201;-60
2023/07/13 03:58:30;;;;;;;1999.90;999.90;;;;;;;17.63;100.00;93331.78;5083133;28;20181;-60
2023/07/13 04:00:57;;;;;;;1999.90;999.90;;;;;;;17.63;100.00;93320.00;5085352;28;20241;-61
2023/07/13 04:03:23;;;;;;;1999.90;999.90;;;;;;;17.62;100.00;93310.97;5086812;28;20481;-61
2023/07/13 04:05:48;;;;;;;1999.90;999.90;;;;;;;17.61;100.00;93298.41;5087228;28;20180;-61
2023/07/13 04:08:14;;;;;;;1999.90;999.90;;;;;;;17.60;100.00;93288.63;5087218;28;20169;-61
2023/07/13 04:10:39;;;;;;;1999.90;999.90;;;;;;;17.61;100.00;93283.84;5086646;28;20215;-61
2023/07/13 04:13:05;;;;;;;1999.90;999.90;;;;;;;17.58;100.00;93262.75;5086603;28;20169;-61
2023/07/13 04:15:31;;;;;;;1999.90;999.90;;;;;;;17.60;100.00;93254.75;5086700;28;20180;-61
2023/07/13 04:17:57;;;;;;;1999.90;999.90;;;;;;;17.61;100.00;93253.47;5086560;28;20180;-62
2023/07/13 04:20:24;;;;;;;1999.90;999.90;;;;;;;17.61;100.00;93239.69;5086527;28;20197;-61
2023/07/13 04:22:49;;;;;;;1999.90;999.90;;;;;;;17.56;100.00;93223.88;5086551;28;20169;-60
2023/07/13 04:25:15;;;;;;;1999.90;999.90;;;;;;;17.58;100.00;93210.31;5087108;28;20231;-60
2023/07/13 04:27:40;;;;;;;1999.90;999.90;;;;;;;17.58;100.00;93202.03;5086461;28;20177;-59
2023/07/13 04:30:06;;;;;;;1999.90;999.90;;;;;;;17.63;100.00;93188.22;5086451;28;20181;-59
2023/07/13 04:32:32;;;;;;;1999.90;999.90;;;;;;;17.67;100.00;93168.66;5085942;28;20173;-59
2023/07/13 04:34:59;;;;;;;1999.90;999.90;;;;;;;17.65;100.00;93160.88;5086968;28;20169;-60
2023/07/13 04:37:25;;;;;;;1999.90;999.90;;;;;;;17.62;100.00;93166.63;5086085;28;20250;-60
2023/07/13 04:39:50;;;;;;;1999.90;999.90;;;;;;;17.69;100.00;93163.38;5086206;28;20232;-59
2023/07/13 04:42:16;;;;;;;1999.90;999.90;;;;;;;17.66;100.00;93165.16;5086322;28;20319;-60
2023/07/13 04:44:41;;;;;;;1999.90;999.90;;;;;;;17.68;100.00;93170.16;5086512;28;20173;-59
2023/07/13 04:47:07;;;;;;;1999.90;999.90;;;;;;;17.65;100.00;93158.13;5086656;28;20193;-59
2023/07/13 04:49:32;;;;;;;1999.90;999.90;;;;;;;17.69;100.00;93149.56;5085887;28;20176;-60
2023/07/13 04:51:58;;;;;;;1999.90;999.90;;;;;;;17.67;100.00;93155.59;5085704;28;20239;-59
2023/07/13 04:54:23;;;;;;;1999.90;999.90;;;;;;;17.66;100.00;93150.59;5086273;28;20189;-58
2023/07/13 04:56:48;;;;;;;1999.90;999.90;;;;;;;17.72;100.00;93145.81;5085704;28;20201;-59
2023/07/13 04:59:14;;;;;;;1999.90;999.90;;;;;;;17.74;100.00;93140.56;5086107;28;20211;-59
2023/07/13 05:01:40;;;;;;;1999.90;999.90;;;;;;;17.72;100.00;93151.34;5085541;28;20173;-59
2023/07/13 05:04:06;;;;;;;1999.90;999.90;;;;;;;17.76;100.00;93152.59;5085658;28;20169;-60
2023/07/13 05:06:31;;;;;;;1999.90;999.90;;;;;;;17.84;100.00;93164.63;5085262;28;20215;-59
2023/07/13 05:08:57;;;;;;;1999.90;999.90;;;;;;;17.79;100.00;93164.63;5085981;28;20180;-60
2023/07/13 05:11:24;;;;;;;1999.90;999.90;;;;;;;17.81;100.00;93178.69;5085045;28;20318;-59
2023/07/13 05:13:49;;;;;;;1999.90;999.90;;;;;;;17.80;100.00;93153.09;5085418;28;20169;-59
2023/07/13 05:16:15;;;;;;;1999.90;999.90;;;;;;;17.87;100.00;93157.34;5085188;28;20255;-59
2023/07/13 05:18:40;;;;;;;1999.90;999.90;;;;;;;17.91;100.00;93153.06;5085275;28;20176;-60
2023/07/13 05:21:07;;;;;;;1999.90;999.90;;;;;;;17.97;100.00;93166.88;5085256;28;20172;-60
2023/07/13 05:23:34;;;;;;;1999.90;999.90;;;;;;;17.99;100.00;93167.88;5085047;28;20165;-59
2023/07/13 05:26:00;;;;;;;1999.90;999.90;;;;;;;18.00;100.00;93177.69;5085037;28;20214;-60
2023/07/13 05:28:27;;;;;;;1999.90;999.90;;;;;;;18.06;100.00;93185.97;5085059;28;20161;-60
2023/07/13 05:30:53;;;;;;;1999.90;999.90;;;;;;;18.02;100.00;93186.19;5085013;28;20192;-59
2023/07/13 05:33:19;;;;;;;1999.90;999.90;;;;;;;18.01;100.00;93194.97;5085477;28;20238;-59
2023/07/13 05:35:45;;;;;;;1999.90;999.90;;;;;;;18.02;100.00;93174.38;5084785;28;20259;-60
2023/07/13 05:38:10;;;;;;;1999.90;999.90;;;;;;;18.05;100.00;93168.63;5085579;28;20170;-59
2023/07/13 05:40:36;;;;;;;1999.90;999.90;;;;;;;18.09;100.00;93165.59;5084663;28;20307;-61
2023/07/13 05:43:01;;;;;;;1999.90;999.90;;;;;;;18.11;100.00;93161.09;5084871;28;20199;-60
2023/07/13 05:45:26;;;;;;;1999.90;999.90;;;;;;;18.15;100.00;93155.28;5084706;28;20189;-60
2023/07/13 05:47:52;;;;;;;1999.90;999.90;;;;;;;18.22;100.00;93160.28;5084636;28;20170;-59
2023/07/13 05:50:18;;;;;;;1999.90;999.90;;;;;;;18.19;100.00;93158.53;5084790;28;20235;-59
2023/07/13 05:52:43;;;;;;;1999.90;999.90;;;;;;;18.18;100.00;93155.00;5084268;28;20232;-57
2023/07/13 05:55:08;;;;;;;1999.90;999.90;;;;;;;18.26;100.00;93169.06;5084586;28;20208;-58
2023/07/13 05:57:34;;;;;;;1999.90;999.90;;;;;;;18.34;100.00;93161.75;5084968;28;20205;-58
2023/07/13 05:59:59;;;;;;;1999.90;999.90;;;;;;;18.44;100.00;93165.78;5084446;28;20200;-58
2023/07/13 06:02:26;;;;;;;1999.90;999.90;;;;;;;18.52;100.00;93177.81;5084676;28;20176;-58
2023/07/13 06:04:51;;;;;;;1999.90;999.90;;;;;;;18.71;100.00;93178.72;5085138;28;20181;-58
2023/07/13 06:07:17;;;;;;;1999.90;999.90;;;;;;;18.81;100.00;93188.25;5084777;28;20196;-59
2023/07/13 06:09:42;;;;;;;1999.90;999.90;;;;;;;18.83;100.00;93216.16;5084654;28;20180;-59
2023/07/13 06:12:08;;;;;;;1999.90;999.90;;;;;;;18.91;100.00;93236.50;5084737;28;20232;-58
2023/07/13 06:14:33;;;;;;;1999.90;999.90;;;;;;;18.86;100.00;93267.69;5084000;28;20177;-58
2023/07/13 06:16:58;;;;;;;1999.90;999.90;;;;;;;18.86;100.00;93301.66;5084670;28;20287;-59
2023/07/13 06:19:23;;;;;;;1999.90;999.90;;;;;;;18.93;100.00;93339.09;5084389;28;20173;-58
2023/07/13 06:21:49;;;;;;;1999.90;999.90;;;;;;;19.08;100.00;93356.16;5084012;28;20210;-58
2023/07/13 06:24:14;;;;;;;1999.90;999.90;;;;;;;19.05;100.00;93407.00;5083354;28;20173;-59
2023/07/13 06:26:39;;;;;;;1999.90;999.90;;;;;;;19.24;100.00;93424.56;5084536;28;20197;-58
2023/07/13 06:29:05;;;;;;;1999.90;999.90;;;;;;;19.46;100.00;93432.84;5083734;28;20174;-58
2023/07/13 06:31:31;;;;;;;1999.90;999.90;;;;;;;19.47;100.00;93459.25;5083908;28;20222;-58
2023/07/13 06:33:56;;;;;;;1999.90;999.90;;;;;;;19.58;100.00;93500.00;5084018;28;20180;-58
2023/07/13 06:36:21;;;;;;;1999.90;999.90;;;;;;;19.76;100.00;93519.63;5084079;28;20208;-58
2023/07/13 06:38:46;;;;;;;1999.90;999.90;;;;;;;19.85;100.00;93547.03;5083889;28;20240;-58
2023/07/13 06:41:12;;;;;;;1999.90;999.90;;;;;;;19.83;100.00;93595.91;5084595;28;20173;-58
2023/07/13 06:43:38;;;;;;;1999.90;999.90;;;;;;;19.86;100.00;93645.56;5084394;28;20177;-58
2023/07/13 06:46:03;;;;;;;1999.90;999.90;;;;;;;19.78;100.00;93688.88;5083851;28;20364;-58
2023/07/13 06:48:29;;;;;;;1999.90;999.90;;;;;;;19.84;100.00;93724.91;5083829;28;20169;-58
2023/07/13 06:50:54;;;;;;;1999.90;999.90;;;;;;;19.77;100.00;93764.94;5084528;28;20215;-58
2023/07/13 06:53:20;;;;;;;1999.90;999.90;;;;;;;19.66;100.00;93825.88;5083912;28;20224;-59
2023/07/13 06:55:46;;;;;;;1999.90;999.90;;;;;;;19.69;100.00;93841.50;5083661;28;20227;-58
2023/07/13 06:58:12;;;;;;;1999.90;999.90;;;;;;;19.70;100.00;93870.69;5084247;28;20173;-58
2023/07/13 07:00:40;;;;;;;1999.90;999.90;;;;;;;19.70;100.00;93875.50;5083682;28;20228;-58
2023/07/13 07:03:05;;;;;;;1999.90;999.90;;;;;;;19.74;100.00;93893.38;5084128;28;20215;-58
2023/07/13 07:05:30;;;;;;;1999.90;999.90;;;;;;;19.78;100.00;93898.69;5083701;28;20174;-59
2023/07/13 07:07:56;;;;;;;1999.90;999.90;;;;;;;19.80;100.00;93907.25;5084125;28;20231;-58
2023/07/13 07:10:21;;;;;;;1999.90;999.90;;;;;;;19.90;100.00;93920.41;5084064;28;20218;-59
2023/07/13 07:12:47;;;;;;;1999.90;999.90;;;;;;;20.05;100.00;93911.88;5083724;28;20177;-58
2023/07/13 07:15:13;;;;;;;1999.90;999.90;;;;;;;20.10;100.00;93942.41;5083535;28;20177;-59
2023/07/13 07:17:38;;;;;;;1999.90;999.90;;;;;;;20.27;100.00;93968.16;5083627;28;20216;-59
2023/07/13 07:20:05;;;;;;;1999.90;999.90;;;;;;;20.56;100.00;93983.59;5084148;28;20173;-59
2023/07/13 07:22:30;;;;;;;1999.90;999.90;;;;;;;20.53;100.00;94046.41;5083498;28;20169;-59
2023/07/13 07:24:57;;;;;;;1999.90;999.90;;;;;;;20.35;100.00;94132.81;5083179;28;20173;-59
2023/07/13 07:27:22;;;;;;;1999.90;999.90;;;;;;;20.26;100.00;94185.75;5083319;28;20184;-59
2023/07/13 07:29:48;;;;;;;1999.90;999.90;;;;;;;20.17;100.00;94266.31;5083389;28;20204;-59
2023/07/13 07:32:13;;;;;;;1999.90;999.90;;;;;;;20.09;100.00;94351.19;5083430;28;20179;-59
2023/07/13 07:34:38;;;;;;;1999.90;999.90;;;;;;;20.02;100.00;94406.28;5084934;28;20169;-59
2023/07/13 07:37:04;;;;;;;1999.90;999.90;;;;;;;19.90;100.00;94432.38;5087760;28;20268;-59
2023/07/13 07:39:29;;;;;;;1999.90;999.90;;;;;;;19.87;100.00;94439.66;5087977;28;20170;-59
2023/07/13 07:41:55;;;;;;;1999.90;999.90;;;;;;;19.91;100.00;94445.75;5087215;28;20177;-59
2023/07/13 07:44:20;;;;;;;1999.90;999.90;;;;;;;19.96;100.00;94445.03;5087052;28;20240;-59
2023/07/13 07:46:46;;;;;;;1999.90;999.90;;;;;;;20.04;100.00;94459.25;5087717;28;20180;-59
2023/07/13 07:49:11;;;;;;;1999.90;999.90;;;;;;;19.98;100.00;94473.03;5087109;28;20169;-59
2023/07/13 07:51:37;;;;;;;1999.90;999.90;;;;;;;19.99;100.00;94480.09;5087154;28;20221;-59
2023/07/13 07:54:03;;;;;;;1999.90;999.90;;;;;;;19.95;100.00;94492.66;5087534;28;20169;-59
2023/07/13 07:56:28;;;;;;;1999.90;999.90;;;;;;;19.82;100.00;94492.25;5087329;28;20201;-59
2023/07/13 07:58:54;;;;;;;1999.90;999.90;;;;;;;19.82;100.00;94487.47;5087013;28;20193;-59
2023/07/13 08:01:19;;;;;;;1999.90;999.90;;;;;;;19.85;100.00;94480.19;5086371;28;20165;-59
2023/07/13 08:03:44;;;;;;;1999.90;999.90;;;;;;;19.85;100.00;94482.97;5087369;28;20170;-59
2023/07/13 08:06:10;;;;;;;1999.90;999.90;;;;;;;19.90;100.00;94483.03;5087183;28;20173;-59
2023/07/13 08:08:35;;;;;;;1999.90;999.90;;;;;;;19.87;100.00;94478.44;5086603;28;20169;-59
2023/07/13 08:11:05;;;;;;;1999.90;999.90;;;;;;;19.81;100.00;94502.56;5087205;28;20215;-59
2023/07/13 08:13:30;;;;;;;1999.90;999.90;;;;;;;19.81;100.00;94497.00;5086571;28;20169;-59
2023/07/13 08:15:56;;;;;;;1999.90;999.90;;;;;;;19.82;100.00;94487.47;5086590;28;20208;-59
2023/07/13 08:18:21;;;;;;;1999.90;999.90;;;;;;;19.70;100.00;94507.94;5086453;28;20173;-59
2023/07/13 08:20:47;;;;;;;1999.90;999.90;;;;;;;19.71;100.00;94509.50;5086259;28;20192;-59
2023/07/13 08:23:12;;;;;;;1999.90;999.90;;;;;;;19.63;100.00;94530.53;5086451;28;20215;-59
2023/07/13 08:25:37;;;;;;;1999.90;999.90;;;;;;;19.63;100.00;94536.06;5086352;28;20180;-59
2023/07/13 08:28:04;;;;;;;1999.90;999.90;;;;;;;19.66;100.00;94529.56;5086902;28;20185;-59
2023/07/13 08:30:29;;;;;;;1999.90;999.90;;;;;;;19.58;100.00;94556.16;5086267;28;20173;-59
2023/07/13 08:32:55;;;;;;;1999.90;999.90;;;;;;;19.62;100.00;94578.13;5086225;28;20173;-59
2023/07/13 08:35:20;;;;;;;1999.90;999.90;;;;;;;19.72;100.00;94594.13;5086034;28;20180;-59
2023/07/13 08:37:46;;;;;;;1999.90;999.90;;;;;;;19.79;100.00;94613.13;5086170;28;20201;-60
2023/07/13 08:40:12;;;;;;;1999.90;999.90;;;;;;;19.77;100.00;94618.38;5086035;28;20201;-59
2023/07/13 08:42:37;;;;;;;1999.90;999.90;;;;;;;19.84;100.00;94628.34;5086635;28;20176;-59
2023/07/13 08:45:23;;;;;;;1999.90;999.90;;;;;;;19.77;100.00;94646.09;5086767;28;20173;-59
2023/07/13 08:48:04;;;;;;;1999.90;999.90;;;;;;;19.79;100.00;94643.63;5086077;28;20172;-60
2023/07/13 08:50:35;;;;;;;1999.90;999.90;;;;;;;19.86;100.00;94637.69;5086453;28;20183;-59
2023/07/13 08:53:02;;;;;;;1999.90;999.90;;;;;;;19.84;100.00;94650.50;5086165;28;20274;-59
2023/07/13 08:55:33;;;;;;;1999.90;999.90;;;;;;;19.87;100.00;94655.84;5085766;28;20198;-60
2023/07/13 08:58:28;;;;;;;1999.90;999.90;;;;;;;19.88;100.00;94668.44;5086193;28;20161;-59
2023/07/13 09:01:20;;;;;;;1999.90;999.90;;;;;;;19.96;100.00;94672.34;5083625;28;20177;-59
2023/07/13 09:03:50;;;;;;;1999.90;999.90;;;;;;;20.15;100.00;94670.91;5085635;28;20175;-59
2023/07/13 09:06:16;;;;;;;1999.90;999.90;;;;;;;20.20;100.00;94677.75;5086131;28;20182;-61
2023/07/13 09:08:51;;;;;;;1999.90;999.90;;;;;;;20.33;100.00;94692.84;5085514;28;20166;-59
2023/07/13 09:11:41;;;;;;;1999.90;999.90;;;;;;;20.37;100.00;94712.84;5086080;28;20156;-61
2023/07/13 09:14:16;;;;;;;1999.90;999.90;;;;;;;20.50;100.00;94741.00;5085449;28;20169;-59
2023/07/13 09:16:42;;;;;;;1999.90;999.90;;;;;;;20.57;100.00;94779.44;5085879;28;20203;-59
2023/07/13 09:19:16;;;;;;;1999.90;999.90;;;;;;;20.69;100.00;94808.88;5085895;28;20165;-59
2023/07/13 09:21:44;;;;;;;1999.90;999.90;;;;;;;20.75;100.00;94834.72;5085678;28;20161;-60
2023/07/13 09:24:29;;;;;;;1999.90;999.90;;;;;;;20.85;100.00;94847.22;5084983;28;20181;-60
2023/07/13 09:26:57;;;;;;;1999.90;999.90;;;;;;;20.98;100.00;94863.59;5085426;28;20153;-60
2023/07/13 09:29:29;;;;;;;1999.90;999.90;;;;;;;21.09;100.00;94850.63;5085267;28;20171;-60
2023/07/13 09:31:58;;;;;;;1999.90;999.90;;;;;;;21.20;100.00;94859.09;5085919;28;20236;-60
2023/07/13 09:34:24;;;;;;;1999.90;999.90;;;;;;;21.35;100.00;94842.38;5085288;28;20170;-60
2023/07/13 09:36:49;;;;;;;1999.90;999.90;;;;;;;21.46;100.00;94843.28;5085413;28;20204;-60
2023/07/13 09:39:27;;;;;;;1999.90;999.90;;;;;;;21.59;100.00;94843.69;5085478;28;20172;-60
2023/07/13 09:42:12;;;;;;;1999.90;999.90;;;;;;;21.65;100.00;94844.53;5085133;28;20178;-60
2023/07/13 09:44:51;;;;;;;1999.90;999.90;;;;;;;21.71;100.00;94848.16;5084832;28;20237;-60
2023/07/13 09:47:26;;;;;;;1999.90;999.90;;;;;;;21.78;100.00;94847.72;5085108;28;20161;-60
2023/07/13 09:50:00;;;;;;;1999.90;999.90;;;;;;;21.70;100.00;94848.59;5085235;28;20168;-60
2023/07/13 09:52:27;;;;;;;1999.90;999.90;;;;;;;21.68;100.00;94856.69;5084476;28;20217;-60
2023/07/13 09:54:58;;;;;;;1999.90;999.90;;;;;;;21.61;100.00;94857.88;5084760;28;20169;-59
2023/07/13 09:57:26;;;;;;;1999.90;999.90;;;;;;;21.80;100.00;94850.00;5084215;28;20307;-60
2023/07/13 09:59:56;;;;;;;1999.90;999.90;;;;;;;22.06;100.00;94840.44;5084188;28;20196;-59
2023/07/13 10:02:28;;;;;;;1999.90;999.90;;;;;;;22.28;100.00;94829.50;5084466;28;20172;-61
2023/07/13 10:05:03;;;;;;;1999.90;999.90;;;;;;;22.55;100.00;94824.69;5084370;28;20173;-59
2023/07/13 10:07:29;;;;;;;1999.90;999.90;;;;;;;22.99;100.00;94833.34;5084829;28;20167;-60
2023/07/13 10:10:03;;;;;;;1999.90;999.90;;;;;;;23.34;100.00;94867.28;5084889;28;20173;-59
2023/07/13 10:12:30;;;;;;;1999.90;999.90;;;;;;;23.88;100.00;94908.59;5084393;28;20153;-59
2023/07/13 10:14:59;;;;;;;1999.90;999.90;;;;;;;24.46;100.00;94976.84;5084316;28;20170;-59
2023/07/13 10:17:34;;;;;;;1999.90;999.90;;;;;;;25.21;100.00;95080.91;5083876;28;20272;-60
2023/07/13 10:20:04;;;;;;;1999.90;999.90;;;;;;;25.37;100.00;95275.22;5084612;28;20169;-59
2023/07/13 10:22:43;;;;;;;1999.90;999.90;;;;;;;26.08;100.00;95439.91;5084179;28;20230;-60
2023/07/13 10:25:22;;;;;;;1999.90;999.90;;;;;;;26.33;100.00;95525.03;5084674;28;20284;-59
2023/07/13 10:27:50;;;;;;;1999.90;999.90;;;;;;;27.34;100.00;95540.38;5084584;28;20179;-60
2023/07/13 10:30:30;;;;;;;1999.90;999.90;;;;;;;28.33;100.00;95561.22;5084180;28;20161;-59
2023/07/13 10:33:03;;;;;;;1999.90;999.90;;;;;;;28.17;100.00;95576.84;5084636;28;20173;-59
2023/07/13 10:35:30;;;;;;;1999.90;999.90;;;;;;;28.36;100.00;95577.06;5084431;28;20165;-59
2023/07/13 10:38:10;;;;;;;1999.90;999.90;;;;;;;28.46;100.00;95592.38;5083895;28;20272;-59
2023/07/13 10:40:47;;;;;;;1999.90;999.90;;;;;;;28.00;100.00;95598.56;5084195;28;20195;-59
2023/07/13 10:43:22;;;;;;;1999.90;999.90;;;;;;;28.12;100.00;95592.44;5084687;28;20161;-59
2023/07/13 10:45:49;;;;;;;1999.90;999.90;;;;;;;28.61;100.00;95599.25;5083610;28;20161;-59
2023/07/13 10:48:16;;;;;;;1999.90;999.90;;;;;;;28.98;78.18;95601.66;5083564;28;20241;-59